« Back
NWS Peachtree City, Ga » Text Product » ATL Terminal Aerodrome Forecast


Printer-friendly Version
Current Version              Previous Versions:   1  2  3  4  5  6  7  8  9  

Terminal Aerodrome Forecast

845
FTUS42 KFFC 032201 AAB
TAFATL
TAF AMD
KATL 032201Z 0322/0424 26009KT P6SM SCT035 BKN080
     FM040700 23007KT P6SM VCSH SCT020 BKN035
      TEMPO 0407/0409 VRB10G25KT 4SM -TSRA BR BKN020CB
     FM040900 29007KT P6SM -SHRA SCT020 BKN045
     FM041400 26010G17KT P6SM SCT045 BKN100=



USA.gov is the U.S. government's official web portal to all federal, state and local government web resources and services.